St David — 2BHL9 — position and weather

sailwx.info

Track history (hours):
 
Tides and Currents Weather Stations Pressure Air Temp Water Temp Dewpoint Dewpoint Depression Visibility Wind Speed Wind Dir Waves Ship Positions

St David

Last reported at 2017-Jun-04 16:37 UTC. Time now 2017-Jun-26 22:27 UTC.
Position N 39°56' E 018°32'.
Warning: this ship's position is 22 days out of date.

Length 60 m; draft 3.4 m.

Type: Pleasure craft. MMSI: 235066164.

Date/timePositionNaut miles runAvg speedWind from/ knotsBaromVisibWave heightAir tempDewpointWater temp
2017-Jun-04 16:37N 39°56' E 018°32'213.4
2017-Jun-04 16:29N 39°54' E 018°31'713.2
2017-Jun-04 15:59N 39°48' E 018°28'613.2
2017-Jun-04 15:30N 39°42' E 018°24'913.3
2017-Jun-04 14:51N 39°36' E 018°17'15711.7
2017-Jun-04 01:23N 38°04' E 015°34'40912.6
2017-Jun-02 17:01N 43°11' E 009°38'712.9
2017-Jun-02 16:27N 43°18' E 009°40'913.0
2017-Jun-02 15:44N 43°27' E 009°42'313.0
2017-Jun-02 15:30N 43°30' E 009°42'713.1
2017-Jun-02 14:59N 43°37' E 009°45'613.2
2017-Jun-02 14:30N 43°43' E 009°47'1313.2
2017-Jun-02 13:30N 43°56' E 009°50'713.2
2017-Jun-02 13:00N 44°02' E 009°52'4 7.6
2017-Jun-02 12:30N 44°06' E 009°50'0 0.0
2017-Jun-02 12:00N 44°06' E 009°50'0 0.0
2017-Jun-02 11:30N 44°06' E 009°50'0 0.0
2017-Jun-02 10:58N 44°06' E 009°50'0 0.0
2017-Jun-02 10:28N 44°06' E 009°50'0 0.0
2017-Jun-02 09:58N 44°06' E 009°50'0 0.0
2017-Jun-02 09:28N 44°06' E 009°50'0 0.0
2017-Jun-02 08:58N 44°06' E 009°50'0 0.0
2017-Jun-02 08:28N 44°06' E 009°50'0 0.0
2017-Jun-02 07:58N 44°06' E 009°50'0 0.0
2017-Jun-02 07:25N 44°06' E 009°50'0 0.0
2017-Jun-02 06:58N 44°06' E 009°50'0 0.0
2017-Jun-02 06:28N 44°06' E 009°50'0 0.0
2017-Jun-02 05:55N 44°06' E 009°50'0 0.0
2017-Jun-02 05:28N 44°06' E 009°50'0 0.0
2017-Jun-02 04:55N 44°06' E 009°50'0 0.0
2017-Jun-02 04:28N 44°06' E 009°50'0 0.0
2017-Jun-02 03:58N 44°06' E 009°50'0 0.0
2017-Jun-02 03:28N 44°06' E 009°50'0 0.0
2017-Jun-02 02:58N 44°06' E 009°50'0 0.0
2017-Jun-02 02:28N 44°06' E 009°50'0 0.0
2017-Jun-02 01:58N 44°06' E 009°50'0 0.0
2017-Jun-02 01:28N 44°06' E 009°50'0 0.0
2017-Jun-02 00:58N 44°06' E 009°50'0 0.0
2017-Jun-02 00:28N 44°06' E 009°50'0 0.0
2017-Jun-01 23:55N 44°06' E 009°50'0 0.0
2017-Jun-01 23:28N 44°06' E 009°50'0 0.0
2017-Jun-01 22:58N 44°06' E 009°50'0 0.0
2017-Jun-01 22:28N 44°06' E 009°50'0 0.0
2017-Jun-01 21:58N 44°06' E 009°50'0 0.0
2017-Jun-01 21:28N 44°06' E 009°50'0 0.0
2017-Jun-01 20:58N 44°06' E 009°50'0 0.0
2017-Jun-01 20:28N 44°06' E 009°50'0 0.0
2017-Jun-01 20:00N 44°06' E 009°50'3 6.3
2017-Jun-01 19:30N 44°03' E 009°52'4 8.5
2017-Jun-01 19:01N 43°59' E 009°51'713.6
2017-Jun-01 18:30N 43°57' E 009°42'713.7
2017-Jun-01 18:00N 43°57' E 009°32'713.8
2017-Jun-01 17:30N 43°56' E 009°23'713.6
2017-Jun-01 17:00N 43°55' E 009°13'713.3
2017-Jun-01 16:30N 43°54' E 009°04'713.1
2017-Jun-01 16:00N 43°53' E 008°55'713.1
2017-Jun-01 15:29N 43°52' E 008°46'  
2017-May-29 17:02N 43°53' E 008°54'015.3
2017-May-29 17:00N 43°53' E 008°54'714.8
2017-May-29 16:30N 43°54' E 009°04'814.9
2017-May-29 16:00N 43°55' E 009°15'714.7
2017-May-29 15:30N 43°56' E 009°25'714.5
2017-May-29 15:00N 43°57' E 009°35'714.6
2017-May-29 14:30N 43°58' E 009°44'1313.5
2017-May-29 13:30N 44°01' E 010°03'  
Track history (hours):
 
Tides and Currents Weather Stations Pressure Air Temp Water Temp Dewpoint Dewpoint Depression Visibility Wind Speed Wind Dir Waves Ship Positions

St David

Last reported at 2017-Jun-04 16:37 UTC. Time now 2017-Jun-26 22:27 UTC.
Position N 39°56' E 018°32'.
Warning: this ship's position is 22 days out of date.

Length 60 m; draft 3.4 m.

Type: Pleasure craft. MMSI: 235066164.

Date/timePositionNaut miles runAvg speedWind from/ knotsBaromVisibWave heightAir tempDewpointWater temp
2017-Jun-04 16:37N 39°56' E 018°32'213.4
2017-Jun-04 16:29N 39°54' E 018°31'713.2
2017-Jun-04 15:59N 39°48' E 018°28'613.2
2017-Jun-04 15:30N 39°42' E 018°24'913.3
2017-Jun-04 14:51N 39°36' E 018°17'15711.7
2017-Jun-04 01:23N 38°04' E 015°34'40912.6
2017-Jun-02 17:01N 43°11' E 009°38'712.9
2017-Jun-02 16:27N 43°18' E 009°40'913.0
2017-Jun-02 15:44N 43°27' E 009°42'313.0
2017-Jun-02 15:30N 43°30' E 009°42'713.1
2017-Jun-02 14:59N 43°37' E 009°45'613.2
2017-Jun-02 14:30N 43°43' E 009°47'1313.2
2017-Jun-02 13:30N 43°56' E 009°50'713.2
2017-Jun-02 13:00N 44°02' E 009°52'4 7.6
2017-Jun-02 12:30N 44°06' E 009°50'0 0.0
2017-Jun-02 12:00N 44°06' E 009°50'0 0.0
2017-Jun-02 11:30N 44°06' E 009°50'0 0.0
2017-Jun-02 10:58N 44°06' E 009°50'0 0.0
2017-Jun-02 10:28N 44°06' E 009°50'0 0.0
2017-Jun-02 09:58N 44°06' E 009°50'0 0.0
2017-Jun-02 09:28N 44°06' E 009°50'0 0.0
2017-Jun-02 08:58N 44°06' E 009°50'0 0.0
2017-Jun-02 08:28N 44°06' E 009°50'0 0.0
2017-Jun-02 07:58N 44°06' E 009°50'0 0.0
2017-Jun-02 07:25N 44°06' E 009°50'0 0.0
2017-Jun-02 06:58N 44°06' E 009°50'0 0.0
2017-Jun-02 06:28N 44°06' E 009°50'0 0.0
2017-Jun-02 05:55N 44°06' E 009°50'0 0.0
2017-Jun-02 05:28N 44°06' E 009°50'0 0.0
2017-Jun-02 04:55N 44°06' E 009°50'0 0.0
2017-Jun-02 04:28N 44°06' E 009°50'0 0.0
2017-Jun-02 03:58N 44°06' E 009°50'0 0.0
2017-Jun-02 03:28N 44°06' E 009°50'0 0.0
2017-Jun-02 02:58N 44°06' E 009°50'0 0.0
2017-Jun-02 02:28N 44°06' E 009°50'0 0.0
2017-Jun-02 01:58N 44°06' E 009°50'0 0.0
2017-Jun-02 01:28N 44°06' E 009°50'0 0.0
2017-Jun-02 00:58N 44°06' E 009°50'0 0.0
2017-Jun-02 00:28N 44°06' E 009°50'0 0.0
2017-Jun-01 23:55N 44°06' E 009°50'0 0.0
2017-Jun-01 23:28N 44°06' E 009°50'0 0.0
2017-Jun-01 22:58N 44°06' E 009°50'0 0.0
2017-Jun-01 22:28N 44°06' E 009°50'0 0.0
2017-Jun-01 21:58N 44°06' E 009°50'0 0.0
2017-Jun-01 21:28N 44°06' E 009°50'0 0.0
2017-Jun-01 20:58N 44°06' E 009°50'0 0.0
2017-Jun-01 20:28N 44°06' E 009°50'0 0.0
2017-Jun-01 20:00N 44°06' E 009°50'3 6.3
2017-Jun-01 19:30N 44°03' E 009°52'4 8.5
2017-Jun-01 19:01N 43°59' E 009°51'713.6
2017-Jun-01 18:30N 43°57' E 009°42'713.7
2017-Jun-01 18:00N 43°57' E 009°32'713.8
2017-Jun-01 17:30N 43°56' E 009°23'713.6
2017-Jun-01 17:00N 43°55' E 009°13'713.3
2017-Jun-01 16:30N 43°54' E 009°04'713.1
2017-Jun-01 16:00N 43°53' E 008°55'713.1
2017-Jun-01 15:29N 43°52' E 008°46'  
2017-May-29 17:02N 43°53' E 008°54'015.3
2017-May-29 17:00N 43°53' E 008°54'714.8
2017-May-29 16:30N 43°54' E 009°04'814.9
2017-May-29 16:00N 43°55' E 009°15'714.7
2017-May-29 15:30N 43°56' E 009°25'714.5
2017-May-29 15:00N 43°57' E 009°35'714.6
2017-May-29 14:30N 43°58' E 009°44'1313.5
2017-May-29 13:30N 44°01' E 010°03'  

Dump ship's entire track history